createdAt,value
2023-05-14T00:01:33.342Z,7.05
2023-05-14T00:04:00.666Z,5.85
2023-05-14T00:06:27.866Z,6.63
2023-05-14T00:08:55.234Z,6.38
2023-05-14T00:11:22.403Z,6.40
2023-05-14T00:13:50.601Z,6.35
2023-05-14T00:16:17.803Z,6.18
2023-05-14T00:18:45.033Z,6.50
2023-05-14T00:21:13.043Z,6.10
2023-05-14T00:23:40.445Z,6.43
2023-05-14T00:26:07.589Z,6.30
2023-05-14T00:28:34.891Z,6.00
2023-05-14T00:31:02.039Z,6.22
2023-05-14T00:33:29.226Z,6.25
2023-05-14T00:35:56.347Z,6.65
2023-05-14T00:38:24.441Z,6.10
2023-05-14T00:40:52.156Z,6.03
2023-05-14T00:43:23.306Z,5.80
2023-05-14T00:45:52.018Z,5.88
2023-05-14T00:48:21.022Z,6.43
2023-05-14T00:50:50.841Z,6.35
2023-05-14T00:53:19.777Z,6.18
2023-05-14T00:55:50.127Z,6.28
2023-05-14T00:58:18.869Z,5.55
2023-05-14T01:00:46.193Z,6.25
2023-05-14T01:03:13.482Z,5.93
2023-05-14T01:05:52.774Z,6.55
2023-05-14T01:08:44.356Z,6.00
2023-05-14T01:11:28.274Z,6.20
2023-05-14T01:14:03.527Z,6.20
2023-05-14T01:16:33.542Z,6.20
2023-05-14T01:19:02.055Z,6.47
2023-05-14T01:21:41.017Z,6.43
2023-05-14T01:24:08.934Z,6.55
2023-05-14T01:26:37.224Z,6.78
2023-05-14T01:29:15.996Z,5.28
2023-05-14T01:31:46.249Z,6.07
2023-05-14T01:34:15.577Z,6.43
2023-05-14T01:36:44.100Z,5.82
2023-05-14T01:39:12.607Z,6.40
2023-05-14T01:41:40.446Z,6.65
2023-05-14T01:44:09.573Z,7.28
2023-05-14T01:46:37.046Z,7.00
2023-05-14T01:49:04.255Z,6.90
2023-05-14T01:51:31.580Z,6.30
2023-05-14T01:53:58.728Z,6.32
2023-05-14T01:56:25.953Z,6.40
2023-05-14T01:58:53.494Z,6.53
2023-05-14T02:01:20.957Z,6.78
2023-05-14T02:03:48.219Z,6.53
2023-05-14T02:06:15.495Z,7.20
2023-05-14T02:08:42.626Z,7.47
2023-05-14T02:11:09.788Z,7.28
2023-05-14T02:13:37.094Z,7.43
2023-05-14T02:16:04.583Z,7.10
2023-05-14T02:18:31.787Z,6.45
2023-05-14T02:20:59.065Z,6.40
2023-05-14T02:23:37.744Z,6.25
2023-05-14T02:26:09.841Z,6.60
2023-05-14T02:28:37.045Z,7.13
2023-05-14T02:31:04.271Z,7.13
2023-05-14T02:33:31.542Z,6.07
2023-05-14T02:35:59.120Z,6.63
2023-05-14T02:38:27.005Z,6.47
2023-05-14T02:40:56.487Z,6.75
2023-05-14T02:43:23.630Z,6.75
2023-05-14T02:45:50.757Z,6.70
2023-05-14T02:48:17.962Z,6.57
2023-05-14T02:50:47.053Z,6.93
2023-05-14T02:53:14.241Z,7.00
2023-05-14T02:55:41.688Z,7.35
2023-05-14T02:58:08.829Z,7.90
2023-05-14T03:00:35.957Z,7.80
2023-05-14T03:03:03.498Z,7.40
2023-05-14T03:05:31.227Z,6.70
2023-05-14T03:07:58.915Z,6.78
2023-05-14T03:10:26.194Z,6.85
2023-05-14T03:12:53.688Z,6.30
2023-05-14T03:15:20.928Z,6.68
2023-05-14T03:17:48.052Z,6.40
2023-05-14T03:20:16.033Z,6.07
2023-05-14T03:22:43.212Z,6.55
2023-05-14T03:25:10.512Z,6.35
2023-05-14T03:27:37.654Z,7.05
2023-05-14T03:30:05.571Z,6.28
2023-05-14T03:32:32.953Z,7.10
2023-05-14T03:35:00.246Z,6.50
2023-05-14T03:37:27.352Z,6.60
2023-05-14T03:39:54.869Z,6.70
2023-05-14T03:42:22.154Z,6.28
2023-05-14T03:44:49.254Z,6.47
2023-05-14T03:47:16.441Z,6.47
2023-05-14T03:49:43.633Z,6.30
2023-05-14T03:52:12.909Z,6.53
2023-05-14T03:54:41.906Z,6.78
2023-05-14T03:57:09.000Z,6.43
2023-05-14T03:59:36.251Z,6.22
2023-05-14T04:02:03.422Z,7.28
2023-05-14T04:04:30.701Z,6.50
2023-05-14T04:06:57.885Z,6.63
2023-05-14T04:09:24.986Z,6.97
2023-05-14T04:11:52.102Z,6.35
2023-05-14T04:14:19.458Z,6.93
2023-05-14T04:16:46.667Z,6.45
2023-05-14T04:19:14.189Z,7.18
2023-05-14T04:21:42.349Z,7.00
2023-05-14T04:24:09.503Z,6.78
2023-05-14T04:26:36.654Z,7.22
2023-05-14T04:29:03.730Z,7.18
2023-05-14T04:31:31.829Z,7.18
2023-05-14T04:33:59.049Z,7.20
2023-05-14T04:36:26.427Z,6.72
2023-05-14T04:38:53.535Z,6.65
2023-05-14T04:41:21.215Z,6.90
2023-05-14T04:43:50.540Z,6.65
2023-05-14T04:46:17.899Z,6.97
2023-05-14T04:48:45.085Z,7.00
2023-05-14T04:51:12.405Z,7.88
2023-05-14T04:53:39.526Z,7.53
2023-05-14T04:56:06.815Z,7.20
2023-05-14T04:58:35.234Z,7.38
2023-05-14T05:01:05.199Z,7.45
2023-05-14T05:03:32.897Z,7.15
2023-05-14T05:06:00.085Z,8.27
2023-05-14T05:08:27.291Z,7.60
2023-05-14T05:10:54.444Z,7.43
2023-05-14T05:13:21.658Z,7.40
2023-05-14T05:15:48.777Z,7.65
2023-05-14T05:18:15.955Z,7.30
2023-05-14T05:20:43.172Z,7.43
2023-05-14T05:23:10.278Z,8.27
2023-05-14T05:25:37.420Z,7.30
2023-05-14T05:28:04.652Z,7.82
2023-05-14T05:30:31.817Z,7.55
2023-05-14T05:32:59.116Z,8.65
2023-05-14T05:35:26.276Z,8.80
2023-05-14T05:37:53.459Z,8.60
2023-05-14T05:40:20.631Z,8.48
2023-05-14T05:42:47.736Z,7.57
2023-05-14T05:45:14.909Z,8.43
2023-05-14T05:47:42.010Z,7.90
